createdAt,value
2023-04-26T00:02:04.810Z,5.93
2023-04-26T00:04:32.476Z,7.88
2023-04-26T00:07:00.695Z,7.03
2023-04-26T00:09:28.212Z,4.80
2023-04-26T00:11:55.656Z,6.85
2023-04-26T00:14:23.430Z,9.82
2023-04-26T00:16:50.916Z,9.73
2023-04-26T00:19:18.420Z,6.85
2023-04-26T00:24:13.437Z,6.07
2023-04-26T00:29:08.264Z,9.15
2023-04-26T00:31:35.808Z,7.75
2023-04-26T00:34:03.370Z,7.32
2023-04-26T00:36:32.465Z,7.53
2023-04-26T00:39:00.040Z,8.40
2023-04-26T00:41:27.462Z,6.50
2023-04-26T00:43:55.139Z,8.32
2023-04-26T00:46:22.971Z,7.32
2023-04-26T00:48:51.312Z,6.50
2023-04-26T00:51:18.786Z,6.68
2023-04-26T00:56:14.461Z,7.13
2023-04-26T00:58:42.148Z,6.35
2023-04-26T01:01:10.183Z,4.78
2023-04-26T01:03:38.549Z,8.60
2023-04-26T01:06:06.557Z,8.48
2023-04-26T01:08:34.383Z,7.05
2023-04-26T01:11:02.032Z,4.82
2023-04-26T01:13:32.125Z,7.25
2023-04-26T01:16:00.268Z,7.25
2023-04-26T01:18:27.723Z,9.52
2023-04-26T01:23:24.358Z,6.88
2023-04-26T01:28:23.019Z,5.30
2023-04-26T01:30:51.011Z,6.03
2023-04-26T01:33:18.445Z,7.45
2023-04-26T01:35:45.939Z,5.45
2023-04-26T01:38:14.720Z,7.60
2023-04-26T01:40:46.119Z,6.95
2023-04-26T01:43:15.611Z,9.23
2023-04-26T01:45:49.445Z,5.95
2023-04-26T01:48:30.254Z,8.55
2023-04-26T01:50:57.796Z,5.50
2023-04-26T01:53:25.546Z,9.82
2023-04-26T01:55:53.002Z,6.75
2023-04-26T02:00:49.723Z,7.38
2023-04-26T02:05:44.772Z,7.22
2023-04-26T02:08:12.249Z,9.15
2023-04-26T02:10:39.841Z,7.95
2023-04-26T02:13:10.025Z,9.38
2023-04-26T02:15:37.569Z,7.78
2023-04-26T02:18:05.736Z,6.72
2023-04-26T02:20:33.520Z,9.93
2023-04-26T02:23:01.076Z,8.30
2023-04-26T02:25:28.509Z,8.18
2023-04-26T02:30:23.427Z,6.15
2023-04-26T02:32:56.690Z,6.70
2023-04-26T02:35:24.981Z,10.98
2023-04-26T02:37:52.535Z,10.30
2023-04-26T02:40:20.637Z,10.07
2023-04-26T02:42:49.039Z,7.18
2023-04-26T02:45:16.652Z,9.38
2023-04-26T02:47:44.151Z,9.50
2023-04-26T02:50:11.879Z,7.78
2023-04-26T02:52:39.355Z,8.18
2023-04-26T02:55:07.418Z,8.27
2023-04-26T02:57:35.218Z,8.65
2023-04-26T03:00:03.066Z,8.43
2023-04-26T03:02:30.927Z,7.72
2023-04-26T03:04:58.633Z,7.80
2023-04-26T03:07:26.723Z,8.60
2023-04-26T03:09:54.382Z,8.20
2023-04-26T03:12:21.954Z,9.52
2023-04-26T03:14:49.433Z,8.75
2023-04-26T03:17:17.924Z,8.27
2023-04-26T03:19:45.729Z,11.68
2023-04-26T03:22:16.228Z,9.55
2023-04-26T03:24:44.706Z,10.13
2023-04-26T03:27:12.689Z,10.35
2023-04-26T03:29:42.139Z,9.60
2023-04-26T03:32:11.296Z,10.45
2023-04-26T03:34:38.946Z,10.60
2023-04-26T03:37:06.646Z,8.77
2023-04-26T03:39:34.164Z,11.55
2023-04-26T03:42:02.033Z,11.73
2023-04-26T03:44:31.172Z,10.50
2023-04-26T03:46:58.799Z,9.35
2023-04-26T03:51:55.484Z,9.45
2023-04-26T03:54:23.002Z,8.85
2023-04-26T03:56:50.743Z,9.70
2023-04-26T03:59:20.377Z,13.55
2023-04-26T04:01:48.630Z,11.90
2023-04-26T04:06:45.025Z,11.90
2023-04-26T04:09:12.816Z,10.35
2023-04-26T04:11:40.331Z,11.05
2023-04-26T04:14:07.782Z,7.65
2023-04-26T04:19:02.498Z,11.20
2023-04-26T04:21:30.201Z,11.73
2023-04-26T04:23:58.342Z,12.07
2023-04-26T04:26:26.508Z,10.00
2023-04-26T04:28:55.464Z,11.32
2023-04-26T04:31:23.278Z,9.68
2023-04-26T04:33:51.138Z,9.80
2023-04-26T04:36:18.693Z,13.18
2023-04-26T04:38:47.052Z,11.38
2023-04-26T04:41:17.049Z,10.10
2023-04-26T04:43:44.784Z,10.27
2023-04-26T04:46:13.296Z,12.43
2023-04-26T04:48:42.143Z,11.75
2023-04-26T04:51:10.034Z,9.75
2023-04-26T04:53:38.273Z,9.98
2023-04-26T04:56:06.188Z,11.82
2023-04-26T04:58:42.287Z,8.32
2023-04-26T05:01:18.647Z,15.63
2023-04-26T05:03:52.777Z,10.75
2023-04-26T05:06:21.146Z,11.02
2023-04-26T05:08:48.583Z,12.80
2023-04-26T05:11:17.058Z,13.20
2023-04-26T05:13:44.496Z,13.20
2023-04-26T05:16:12.320Z,11.82
2023-04-26T05:18:40.266Z,11.18
2023-04-26T05:21:09.704Z,15.88
2023-04-26T05:23:37.255Z,12.00
2023-04-26T05:26:06.176Z,13.50
2023-04-26T05:28:51.372Z,12.43
2023-04-26T05:31:33.907Z,15.35
2023-04-26T05:34:19.687Z,12.25
2023-04-26T05:36:51.876Z,14.18
2023-04-26T05:39:20.754Z,14.45
2023-04-26T05:41:48.729Z,12.35
2023-04-26T05:44:16.926Z,12.00
2023-04-26T05:46:45.389Z,13.45
2023-04-26T05:49:12.871Z,12.75
2023-04-26T05:51:40.883Z,14.75
2023-04-26T05:54:08.933Z,15.88
2023-04-26T05:56:36.469Z,15.48
2023-04-26T05:59:03.986Z,13.75
2023-04-26T06:01:33.228Z,14.05
2023-04-26T06:04:02.232Z,20.73
2023-04-26T06:06:37.216Z,16.25
2023-04-26T06:09:04.763Z,13.13
2023-04-26T06:13:59.572Z,13.32
2023-04-26T06:16:27.035Z,13.45
2023-04-26T06:18:54.578Z,17.30
2023-04-26T06:23:49.682Z,15.18
2023-04-26T06:26:19.120Z,15.77
2023-04-26T06:31:14.796Z,13.38
2023-04-26T06:33:42.457Z,13.23
2023-04-26T06:36:13.528Z,12.85
2023-04-26T06:38:42.086Z,15.50
2023-04-26T06:43:37.165Z,14.32
2023-04-26T06:46:16.404Z,17.33
2023-04-26T06:48:44.414Z,16.23
2023-04-26T06:51:12.599Z,15.68
2023-04-26T06:53:40.147Z,13.93
2023-04-26T06:58:36.638Z,14.32
2023-04-26T07:01:06.740Z,15.65
2023-04-26T07:03:34.514Z,16.33
2023-04-26T07:06:02.308Z,16.52
2023-04-26T07:08:29.891Z,15.20
2023-04-26T07:10:58.641Z,18.13
2023-04-26T07:13:26.346Z,15.73
2023-04-26T07:15:53.767Z,15.38
2023-04-26T07:18:21.256Z,12.73
2023-04-26T07:23:16.433Z,17.95
2023-04-26T07:25:44.072Z,14.98
2023-04-26T07:28:11.563Z,15.93
2023-04-26T07:33:06.485Z,14.35
2023-04-26T07:35:35.714Z,15.73
2023-04-26T07:38:03.507Z,16.45
2023-04-26T07:40:31.490Z,12.85
2023-04-26T07:42:59.143Z,18.13
2023-04-26T07:45:26.670Z,15.65
2023-04-26T07:47:54.652Z,11.45
2023-04-26T07:50:22.115Z,15.27
2023-04-26T07:55:17.833Z,13.40
2023-04-26T07:57:45.396Z,17.00
2023-04-26T08:02:45.237Z,14.32
2023-04-26T08:05:14.217Z,14.75
2023-04-26T08:07:43.156Z,13.45
2023-04-26T08:10:11.143Z,12.25
2023-04-26T08:12:38.946Z,14.07
2023-04-26T08:15:06.971Z,17.42
2023-04-26T08:17:34.945Z,14.55
2023-04-26T08:20:03.897Z,11.65
2023-04-26T08:22:31.401Z,11.20
2023-04-26T08:24:59.017Z,12.32
2023-04-26T08:27:26.923Z,13.50
2023-04-26T08:29:54.426Z,14.27
2023-04-26T08:32:22.201Z,13.25
2023-04-26T08:34:49.851Z,15.15
2023-04-26T08:37:17.320Z,14.68
2023-04-26T08:39:44.906Z,12.23
2023-04-26T08:42:17.111Z,14.00
2023-04-26T08:44:45.821Z,14.85
2023-04-26T08:47:19.550Z,11.43
2023-04-26T08:49:53.718Z,15.40
2023-04-26T08:52:24.140Z,12.38
2023-04-26T08:54:53.458Z,14.60
2023-04-26T08:57:27.439Z,12.38
2023-04-26T08:59:58.453Z,11.50
2023-04-26T09:02:26.280Z,16.48
2023-04-26T09:04:53.979Z,12.85
2023-04-26T09:07:25.832Z,14.70
2023-04-26T09:09:55.369Z,13.50
2023-04-26T09:12:22.856Z,16.90
2023-04-26T09:14:50.520Z,14.40
2023-04-26T09:17:36.990Z,12.18
2023-04-26T09:20:27.846Z,14.23
2023-04-26T09:23:06.457Z,15.25
2023-04-26T09:25:34.706Z,14.65
2023-04-26T09:28:03.948Z,12.73
2023-04-26T09:30:38.384Z,15.60
2023-04-26T09:33:07.054Z,15.93
2023-04-26T09:35:42.633Z,13.77
2023-04-26T09:38:15.272Z,15.18
2023-04-26T09:40:44.673Z,12.45
2023-04-26T09:43:22.851Z,14.82
2023-04-26T09:45:55.572Z,17.55
2023-04-26T09:48:30.494Z,15.75
2023-04-26T09:51:00.289Z,13.95
2023-04-26T09:53:39.433Z,14.93
2023-04-26T09:56:12.235Z,14.85
2023-04-26T09:59:05.347Z,15.43
2023-04-26T10:01:33.504Z,17.10
2023-04-26T10:04:04.953Z,13.48
2023-04-26T10:06:33.142Z,13.88
2023-04-26T10:09:02.564Z,12.60
2023-04-26T10:11:30.637Z,13.48
2023-04-26T10:13:59.132Z,12.93
2023-04-26T10:16:26.958Z,16.25
2023-04-26T10:18:54.621Z,14.73
2023-04-26T10:21:37.991Z,12.50
2023-04-26T10:24:06.184Z,15.15
2023-04-26T10:26:54.746Z,12.82
2023-04-26T10:29:24.093Z,13.18
2023-04-26T10:32:10.204Z,13.50
2023-04-26T10:34:38.106Z,11.32
2023-04-26T10:37:16.301Z,13.65
2023-04-26T10:39:45.539Z,14.32
2023-04-26T10:42:24.077Z,14.35
2023-04-26T10:44:54.017Z,12.60
2023-04-26T10:47:33.134Z,9.60
2023-04-26T10:50:09.057Z,11.90
2023-04-26T10:52:38.989Z,11.00
2023-04-26T10:55:08.012Z,11.43
2023-04-26T10:57:50.720Z,9.48
2023-04-26T11:00:29.223Z,9.82
2023-04-26T11:03:03.785Z,12.65
2023-04-26T11:05:47.741Z,9.50
2023-04-26T11:08:20.639Z,9.18
2023-04-26T11:11:10.426Z,14.07
2023-04-26T11:13:40.767Z,9.23
2023-04-26T11:16:16.045Z,10.60
2023-04-26T11:18:46.444Z,11.18
2023-04-26T11:21:18.141Z,10.95
2023-04-26T11:23:55.542Z,8.48
2023-04-26T11:28:50.424Z,12.55
2023-04-26T11:31:19.121Z,9.75
2023-04-26T11:33:49.231Z,8.43
2023-04-26T11:36:19.828Z,9.80
2023-04-26T11:38:47.631Z,8.80
2023-04-26T11:41:15.249Z,7.05
2023-04-26T11:43:42.780Z,10.32
2023-04-26T11:46:10.704Z,8.20
2023-04-26T11:48:39.456Z,7.07
2023-04-26T11:51:08.494Z,9.38
2023-04-26T11:53:43.875Z,8.63
2023-04-26T11:56:25.692Z,8.95
2023-04-26T11:58:54.083Z,9.48
2023-04-26T12:01:29.133Z,7.22
2023-04-26T12:03:58.916Z,7.90
2023-04-26T12:06:42.895Z,10.23
2023-04-26T12:09:11.415Z,7.28
2023-04-26T12:11:40.094Z,9.35
2023-04-26T12:14:11.584Z,7.07
2023-04-26T12:16:39.128Z,8.23
2023-04-26T12:19:09.832Z,7.07
2023-04-26T12:21:44.112Z,6.90
2023-04-26T12:24:43.149Z,6.93
2023-04-26T12:27:21.091Z,9.93
2023-04-26T12:29:48.527Z,10.90
2023-04-26T12:32:15.872Z,7.55
2023-04-26T12:34:43.405Z,7.20
2023-04-26T12:37:10.839Z,6.78
2023-04-26T12:39:38.445Z,7.18
2023-04-26T12:42:06.569Z,7.53
2023-04-26T12:44:34.220Z,7.07
2023-04-26T12:47:01.833Z,6.63
2023-04-26T12:49:30.507Z,7.30
2023-04-26T12:51:57.989Z,5.47
2023-04-26T12:54:25.592Z,8.00
2023-04-26T12:56:53.071Z,8.25
2023-04-26T12:59:20.504Z,5.95
2023-04-26T13:01:47.933Z,4.78
2023-04-26T13:04:15.823Z,5.22
2023-04-26T13:06:43.492Z,6.15
2023-04-26T13:09:13.226Z,5.20
2023-04-26T13:11:40.971Z,4.65
2023-04-26T13:14:08.468Z,5.15
2023-04-26T13:16:36.291Z,4.97
2023-04-26T13:19:04.006Z,6.57
2023-04-26T13:21:31.475Z,4.45
2023-04-26T13:23:58.964Z,8.68
2023-04-26T13:26:27.821Z,6.18
2023-04-26T13:28:56.030Z,6.32
2023-04-26T13:31:23.536Z,4.88
2023-04-26T13:33:51.455Z,4.38
2023-04-26T13:36:18.970Z,5.35
2023-04-26T13:38:46.669Z,4.35
2023-04-26T13:41:14.530Z,6.40
2023-04-26T13:43:42.319Z,9.63
2023-04-26T13:46:09.753Z,7.25
2023-04-26T13:48:37.229Z,6.72
2023-04-26T13:51:06.995Z,4.25
2023-04-26T13:53:34.890Z,7.47
2023-04-26T13:56:02.480Z,4.80
2023-04-26T13:58:30.072Z,7.30
2023-04-26T14:00:57.518Z,5.28
2023-04-26T14:03:26.886Z,4.65
2023-04-26T14:05:56.591Z,6.35
2023-04-26T14:08:24.045Z,5.43
2023-04-26T14:10:51.523Z,7.82
2023-04-26T14:13:18.960Z,5.10
2023-04-26T14:15:47.376Z,6.30
2023-04-26T14:18:15.018Z,5.63
2023-04-26T14:20:42.853Z,5.45
2023-04-26T14:23:10.869Z,5.45
2023-04-26T14:25:38.329Z,8.43
2023-04-26T14:28:08.236Z,5.65
2023-04-26T14:30:35.794Z,4.32
2023-04-26T14:33:03.402Z,6.22
2023-04-26T14:35:31.028Z,6.32
2023-04-26T14:37:58.542Z,5.88
2023-04-26T14:40:26.102Z,6.63
2023-04-26T14:42:53.640Z,4.85
2023-04-26T14:45:23.812Z,5.93
2023-04-26T14:47:58.055Z,6.88
2023-04-26T14:50:25.574Z,5.50
2023-04-26T14:52:53.262Z,5.07
2023-04-26T14:55:22.660Z,5.75
2023-04-26T14:57:50.779Z,7.38
2023-04-26T15:00:19.460Z,6.70
2023-04-26T15:02:47.252Z,6.00
2023-04-26T15:05:15.085Z,4.97
2023-04-26T15:07:43.225Z,4.75
2023-04-26T15:10:11.305Z,5.07
2023-04-26T15:12:38.823Z,3.75
2023-04-26T15:15:07.287Z,6.72
2023-04-26T15:17:34.858Z,5.75
2023-04-26T15:20:02.326Z,6.40
2023-04-26T15:22:29.934Z,5.30
2023-04-26T15:24:57.342Z,5.85
2023-04-26T15:27:25.268Z,5.63
2023-04-26T15:29:53.684Z,6.22
2023-04-26T15:32:21.250Z,6.00
2023-04-26T15:34:48.735Z,4.80
2023-04-26T15:37:16.388Z,5.82
2023-04-26T15:39:44.371Z,4.22
2023-04-26T15:42:11.986Z,4.38
2023-04-26T15:44:39.490Z,3.15
2023-04-26T15:47:07.246Z,3.58
2023-04-26T15:49:34.917Z,2.63
2023-04-26T15:52:02.480Z,5.15
2023-04-26T15:54:29.869Z,5.05
2023-04-26T15:56:58.377Z,6.28
2023-04-26T15:59:26.519Z,3.42
2023-04-26T16:01:54.257Z,6.22
2023-04-26T16:04:22.187Z,7.40
2023-04-26T16:06:49.865Z,5.18
2023-04-26T16:09:25.446Z,6.95
2023-04-26T16:11:53.474Z,5.07
2023-04-26T16:14:21.138Z,7.30
2023-04-26T16:16:48.817Z,5.22
2023-04-26T16:19:17.387Z,5.07
2023-04-26T16:21:44.972Z,5.40
2023-04-26T16:24:12.548Z,4.75
2023-04-26T16:26:40.224Z,7.10
2023-04-26T16:29:08.593Z,5.68
2023-04-26T16:31:36.367Z,4.68
2023-04-26T16:34:03.855Z,5.60
2023-04-26T16:36:31.691Z,5.15
2023-04-26T16:38:59.154Z,3.63
2023-04-26T16:41:27.596Z,3.22
2023-04-26T16:43:56.087Z,4.15
2023-04-26T16:46:23.642Z,3.92
2023-04-26T16:48:51.250Z,3.30
2023-04-26T16:51:18.755Z,5.32
2023-04-26T16:53:46.350Z,6.40
2023-04-26T16:56:13.912Z,4.03
2023-04-26T16:58:41.439Z,2.63
2023-04-26T17:01:08.975Z,2.55
2023-04-26T17:03:37.039Z,4.60
2023-04-26T17:06:06.736Z,4.45
2023-04-26T17:08:34.370Z,3.08
2023-04-26T17:11:01.946Z,2.00
2023-04-26T17:13:30.819Z,1.65
2023-04-26T17:15:58.378Z,2.63
2023-04-26T17:18:26.033Z,2.40
2023-04-26T17:20:56.418Z,2.53
2023-04-26T17:23:24.568Z,2.97
2023-04-26T17:25:54.378Z,6.15
2023-04-26T17:28:22.822Z,1.42
2023-04-26T17:30:50.508Z,1.10
2023-04-26T17:33:18.461Z,1.42
2023-04-26T17:35:47.357Z,4.85
2023-04-26T17:38:14.935Z,6.05
2023-04-26T17:40:42.457Z,7.47
2023-04-26T17:43:09.934Z,7.85
2023-04-26T17:45:37.448Z,8.00
2023-04-26T17:48:05.623Z,6.65
2023-04-26T17:50:33.241Z,6.82
2023-04-26T17:53:00.985Z,7.57
2023-04-26T17:55:28.406Z,8.40
2023-04-26T17:57:55.919Z,8.68
2023-04-26T18:00:23.945Z,6.60
2023-04-26T18:02:51.879Z,7.80
2023-04-26T18:05:19.575Z,6.05
2023-04-26T18:07:47.458Z,7.65
2023-04-26T18:10:14.991Z,5.15
2023-04-26T18:12:42.502Z,7.78
2023-04-26T18:15:10.091Z,7.70
2023-04-26T18:17:37.796Z,7.55
2023-04-26T18:20:05.624Z,7.78
2023-04-26T18:22:33.249Z,7.38
2023-04-26T18:25:00.794Z,5.93
2023-04-26T18:27:28.451Z,2.70
2023-04-26T18:29:56.137Z,3.42
2023-04-26T18:32:23.827Z,3.33
2023-04-26T18:34:51.508Z,2.35
2023-04-26T18:37:19.319Z,1.13
2023-04-26T18:39:46.947Z,1.33
2023-04-26T18:42:14.492Z,3.50
2023-04-26T18:44:42.115Z,2.85
2023-04-26T18:47:09.928Z,0.73
2023-04-26T18:49:37.489Z,1.73
2023-04-26T18:52:08.831Z,3.60
2023-04-26T18:54:38.786Z,0.93
2023-04-26T18:57:06.208Z,2.22
2023-04-26T18:59:33.853Z,2.22
2023-04-26T19:02:01.811Z,0.47
2023-04-26T19:04:29.492Z,1.27
2023-04-26T19:06:57.235Z,1.38
2023-04-26T19:09:24.921Z,0.68
2023-04-26T19:11:52.295Z,2.00
2023-04-26T19:14:19.745Z,1.13
2023-04-26T19:16:47.255Z,0.77
2023-04-26T19:19:14.942Z,0.88
2023-04-26T19:21:42.385Z,1.58
2023-04-26T19:24:09.934Z,1.15
2023-04-26T19:26:38.013Z,3.05
2023-04-26T19:29:06.925Z,1.65
2023-04-26T19:31:34.703Z,3.15
2023-04-26T19:34:02.446Z,4.38
2023-04-26T19:36:29.872Z,1.98
2023-04-26T19:38:57.436Z,5.90
2023-04-26T19:41:25.133Z,1.23
2023-04-26T19:43:52.624Z,1.55
2023-04-26T19:46:20.110Z,2.72
2023-04-26T19:48:47.595Z,1.00
2023-04-26T19:51:18.736Z,2.08
2023-04-26T19:53:46.184Z,2.08
2023-04-26T19:56:13.736Z,1.30
2023-04-26T19:58:41.929Z,2.30
2023-04-26T20:01:09.622Z,3.38
2023-04-26T20:03:39.401Z,4.03
2023-04-26T20:06:07.282Z,9.40
2023-04-26T20:08:34.761Z,5.50
2023-04-26T20:11:03.794Z,3.33
2023-04-26T20:13:32.223Z,3.80
2023-04-26T20:15:59.649Z,2.13
2023-04-26T20:18:27.380Z,3.38
2023-04-26T20:20:54.879Z,2.58
2023-04-26T20:23:22.477Z,1.67
2023-04-26T20:25:51.178Z,1.50
2023-04-26T20:28:18.949Z,1.38
2023-04-26T20:30:46.539Z,1.50
2023-04-26T20:33:14.555Z,1.10
2023-04-26T20:35:42.140Z,1.38
2023-04-26T20:38:09.739Z,1.45
2023-04-26T20:40:37.679Z,3.05
2023-04-26T20:43:05.347Z,1.67
2023-04-26T20:45:32.954Z,1.33
2023-04-26T20:48:00.761Z,2.78
2023-04-26T20:50:28.361Z,1.42
2023-04-26T20:52:56.432Z,2.55
2023-04-26T20:55:23.978Z,4.50
2023-04-26T20:57:51.545Z,2.08
2023-04-26T21:00:19.419Z,1.17
2023-04-26T21:02:47.049Z,2.92
2023-04-26T21:05:14.647Z,1.77
2023-04-26T21:07:42.308Z,4.25
2023-04-26T21:10:10.285Z,3.35
2023-04-26T21:12:38.227Z,2.35
2023-04-26T21:15:06.506Z,2.47
2023-04-26T21:17:35.519Z,4.15
2023-04-26T21:20:02.989Z,5.68
2023-04-26T21:22:30.551Z,3.85
2023-04-26T21:24:58.028Z,2.25
2023-04-26T21:27:25.700Z,2.85
2023-04-26T21:29:53.081Z,1.88
2023-04-26T21:32:20.561Z,4.25
2023-04-26T21:34:47.972Z,1.70
2023-04-26T21:37:16.836Z,1.83
2023-04-26T21:39:44.388Z,2.22
2023-04-26T21:42:12.120Z,4.40
2023-04-26T21:44:39.563Z,3.10
2023-04-26T21:47:07.111Z,2.38
2023-04-26T21:49:34.840Z,3.95
2023-04-26T21:52:02.252Z,2.15
2023-04-26T21:56:56.984Z,2.42
2023-04-26T21:59:24.409Z,5.20
2023-04-26T22:01:51.958Z,2.88
2023-04-26T22:04:19.643Z,2.50
2023-04-26T22:06:47.226Z,5.28
2023-04-26T22:09:14.666Z,3.80
2023-04-26T22:11:42.342Z,4.53
2023-04-26T22:14:09.785Z,2.67
2023-04-26T22:16:37.358Z,3.15
2023-04-26T22:19:05.205Z,2.90
2023-04-26T22:21:33.071Z,3.67
2023-04-26T22:24:01.330Z,3.60
2023-04-26T22:26:28.866Z,3.92
2023-04-26T22:28:56.762Z,6.10
2023-04-26T22:31:24.217Z,7.20
2023-04-26T22:33:51.871Z,5.13
2023-04-26T22:36:19.401Z,4.90
2023-04-26T22:38:46.813Z,5.47
2023-04-26T22:41:14.449Z,3.88
2023-04-26T22:43:43.998Z,5.25
2023-04-26T22:46:11.771Z,6.13
2023-04-26T22:48:39.306Z,6.63
2023-04-26T22:51:07.209Z,4.05
2023-04-26T22:53:34.691Z,5.18
2023-04-26T22:56:02.212Z,3.90
2023-04-26T22:58:29.677Z,5.32
2023-04-26T23:00:57.155Z,4.68
2023-04-26T23:03:24.743Z,6.30
2023-04-26T23:05:52.545Z,2.85
2023-04-26T23:08:20.088Z,6.63
2023-04-26T23:10:47.654Z,8.27
2023-04-26T23:13:16.223Z,3.65
2023-04-26T23:15:43.670Z,5.50
2023-04-26T23:18:11.073Z,4.57
2023-04-26T23:20:38.624Z,6.18
2023-04-26T23:23:06.303Z,4.57
2023-04-26T23:25:33.981Z,4.25
2023-04-26T23:28:01.445Z,3.15
2023-04-26T23:30:29.028Z,6.05
2023-04-26T23:32:56.574Z,5.15
2023-04-26T23:35:24.140Z,4.88
2023-04-26T23:37:52.595Z,4.38
2023-04-26T23:40:20.157Z,6.57
2023-04-26T23:42:47.573Z,5.35
2023-04-26T23:45:15.088Z,8.27
2023-04-26T23:47:42.510Z,4.07
2023-04-26T23:50:10.234Z,6.80
2023-04-26T23:52:37.709Z,4.63
2023-04-26T23:55:05.840Z,4.05
2023-04-26T23:57:33.242Z,4.47
